sensor_id;sensor_type;location;lat;lon;timestamp;pressure;altitude;pressure_sealevel;temperature
78917;BMP280;68315;48.608;11.436;2023-09-30T00:01:44;97972.41;;;16.17
78917;BMP280;68315;48.608;11.436;2023-09-30T00:04:10;97965.91;;;16.14
78917;BMP280;68315;48.608;11.436;2023-09-30T00:06:35;97972.56;;;16.11
78917;BMP280;68315;48.608;11.436;2023-09-30T00:09:01;97968.34;;;16.10
78917;BMP280;68315;48.608;11.436;2023-09-30T00:11:27;97979.22;;;16.08
78917;BMP280;68315;48.608;11.436;2023-09-30T00:13:52;97973.50;;;16.06
78917;BMP280;68315;48.608;11.436;2023-09-30T00:16:17;97980.13;;;16.03
78917;BMP280;68315;48.608;11.436;2023-09-30T00:18:44;97978.69;;;16.02
78917;BMP280;68315;48.608;11.436;2023-09-30T00:21:10;97975.50;;;15.98
78917;BMP280;68315;48.608;11.436;2023-09-30T00:23:35;97981.63;;;15.97
78917;BMP280;68315;48.608;11.436;2023-09-30T00:26:00;97986.22;;;15.94
78917;BMP280;68315;48.608;11.436;2023-09-30T00:28:26;97986.75;;;15.93
78917;BMP280;68315;48.608;11.436;2023-09-30T00:30:51;97994.91;;;15.91
78917;BMP280;68315;48.608;11.436;2023-09-30T00:33:16;97998.00;;;15.87
78917;BMP280;68315;48.608;11.436;2023-09-30T00:35:42;97996.16;;;15.82
78917;BMP280;68315;48.608;11.436;2023-09-30T00:38:07;98003.88;;;15.76
78917;BMP280;68315;48.608;11.436;2023-09-30T00:40:33;97999.03;;;15.69
78917;BMP280;68315;48.608;11.436;2023-09-30T00:43:00;97999.22;;;15.64
78917;BMP280;68315;48.608;11.436;2023-09-30T00:45:26;98000.88;;;15.59
78917;BMP280;68315;48.608;11.436;2023-09-30T00:47:51;98006.22;;;15.57
78917;BMP280;68315;48.608;11.436;2023-09-30T00:50:19;98011.53;;;15.55
78917;BMP280;68315;48.608;11.436;2023-09-30T00:52:46;98011.34;;;15.53
78917;BMP280;68315;48.608;11.436;2023-09-30T00:55:12;98009.66;;;15.50
78917;BMP280;68315;48.608;11.436;2023-09-30T00:57:38;97998.56;;;15.50
78917;BMP280;68315;48.608;11.436;2023-09-30T01:00:03;98011.50;;;15.48
78917;BMP280;68315;48.608;11.436;2023-09-30T01:02:30;98007.03;;;15.44
78917;BMP280;68315;48.608;11.436;2023-09-30T01:04:55;98002.81;;;15.43
78917;BMP280;68315;48.608;11.436;2023-09-30T01:07:20;98001.34;;;15.43
78917;BMP280;68315;48.608;11.436;2023-09-30T01:09:49;98000.59;;;15.42
78917;BMP280;68315;48.608;11.436;2023-09-30T01:12:15;97995.94;;;15.37
78917;BMP280;68315;48.608;11.436;2023-09-30T01:14:41;98003.81;;;15.33
78917;BMP280;68315;48.608;11.436;2023-09-30T01:17:07;98007.19;;;15.31
78917;BMP280;68315;48.608;11.436;2023-09-30T01:19:39;98003.97;;;15.27
78917;BMP280;68315;48.608;11.436;2023-09-30T01:22:04;98001.22;;;15.27
78917;BMP280;68315;48.608;11.436;2023-09-30T01:24:30;97994.22;;;15.26
78917;BMP280;68315;48.608;11.436;2023-09-30T01:26:56;98006.56;;;15.25
78917;BMP280;68315;48.608;11.436;2023-09-30T01:29:22;98005.06;;;15.24
78917;BMP280;68315;48.608;11.436;2023-09-30T01:31:48;97999.16;;;15.20
78917;BMP280;68315;48.608;11.436;2023-09-30T01:34:15;97998.75;;;15.16
78917;BMP280;68315;48.608;11.436;2023-09-30T01:36:41;98000.38;;;15.12
78917;BMP280;68315;48.608;11.436;2023-09-30T01:39:07;97999.22;;;15.07
78917;BMP280;68315;48.608;11.436;2023-09-30T01:41:32;98000.53;;;15.06
78917;BMP280;68315;48.608;11.436;2023-09-30T01:43:58;98005.00;;;15.09
78917;BMP280;68315;48.608;11.436;2023-09-30T01:46:23;98002.75;;;15.08
78917;BMP280;68315;48.608;11.436;2023-09-30T01:48:48;97997.97;;;15.08
78917;BMP280;68315;48.608;11.436;2023-09-30T01:51:14;97994.44;;;15.08
78917;BMP280;68315;48.608;11.436;2023-09-30T01:53:39;97997.22;;;15.08
78917;BMP280;68315;48.608;11.436;2023-09-30T01:56:04;97992.97;;;15.07
78917;BMP280;68315;48.608;11.436;2023-09-30T01:58:30;98000.34;;;15.04
78917;BMP280;68315;48.608;11.436;2023-09-30T02:01:01;98006.41;;;15.03
78917;BMP280;68315;48.608;11.436;2023-09-30T02:03:27;98003.44;;;15.01
78917;BMP280;68315;48.608;11.436;2023-09-30T02:05:54;98010.06;;;14.98
78917;BMP280;68315;48.608;11.436;2023-09-30T02:08:19;98004.69;;;14.92
78917;BMP280;68315;48.608;11.436;2023-09-30T02:10:44;98009.59;;;14.86
78917;BMP280;68315;48.608;11.436;2023-09-30T02:13:09;98007.75;;;14.81
78917;BMP280;68315;48.608;11.436;2023-09-30T02:15:35;98013.94;;;14.74
78917;BMP280;68315;48.608;11.436;2023-09-30T02:18:00;98016.84;;;14.69
78917;BMP280;68315;48.608;11.436;2023-09-30T02:20:26;98014.19;;;14.63
78917;BMP280;68315;48.608;11.436;2023-09-30T02:22:55;98014.88;;;14.56
78917;BMP280;68315;48.608;11.436;2023-09-30T02:25:20;98017.53;;;14.48
78917;BMP280;68315;48.608;11.436;2023-09-30T02:27:45;98024.09;;;14.38
78917;BMP280;68315;48.608;11.436;2023-09-30T02:30:11;98019.94;;;14.31
78917;BMP280;68315;48.608;11.436;2023-09-30T02:32:41;98015.50;;;14.28
78917;BMP280;68315;48.608;11.436;2023-09-30T02:35:07;98002.44;;;14.29
78917;BMP280;68315;48.608;11.436;2023-09-30T02:37:34;98009.00;;;14.26
78917;BMP280;68315;48.608;11.436;2023-09-30T02:40:06;98007.00;;;14.26
78917;BMP280;68315;48.608;11.436;2023-09-30T02:42:38;98009.75;;;14.26
78917;BMP280;68315;48.608;11.436;2023-09-30T02:45:07;98005.75;;;14.27
78917;BMP280;68315;48.608;11.436;2023-09-30T02:47:34;98001.69;;;14.28
78917;BMP280;68315;48.608;11.436;2023-09-30T02:49:59;98007.41;;;14.30
78917;BMP280;68315;48.608;11.436;2023-09-30T02:52:25;98013.50;;;14.29
78917;BMP280;68315;48.608;11.436;2023-09-30T02:54:50;98007.22;;;14.28
78917;BMP280;68315;48.608;11.436;2023-09-30T02:57:16;98000.97;;;14.28
78917;BMP280;68315;48.608;11.436;2023-09-30T02:59:43;98005.19;;;14.29
78917;BMP280;68315;48.608;11.436;2023-09-30T03:02:09;97995.81;;;14.32
78917;BMP280;68315;48.608;11.436;2023-09-30T03:04:34;97995.06;;;14.31
78917;BMP280;68315;48.608;11.436;2023-09-30T03:07:00;98002.09;;;14.32
78917;BMP280;68315;48.608;11.436;2023-09-30T03:09:25;98007.09;;;14.34
78917;BMP280;68315;48.608;11.436;2023-09-30T03:11:51;98012.63;;;14.34
78917;BMP280;68315;48.608;11.436;2023-09-30T03:14:16;98011.31;;;14.35
78917;BMP280;68315;48.608;11.436;2023-09-30T03:16:41;98007.28;;;14.36
78917;BMP280;68315;48.608;11.436;2023-09-30T03:19:08;98013.78;;;14.38
78917;BMP280;68315;48.608;11.436;2023-09-30T03:21:36;98011.22;;;14.40
78917;BMP280;68315;48.608;11.436;2023-09-30T03:24:04;98015.28;;;14.39
78917;BMP280;68315;48.608;11.436;2023-09-30T03:26:30;98012.50;;;14.39
78917;BMP280;68315;48.608;11.436;2023-09-30T03:28:56;98021.31;;;14.38
78917;BMP280;68315;48.608;11.436;2023-09-30T03:31:21;98010.81;;;14.36
78917;BMP280;68315;48.608;11.436;2023-09-30T03:33:50;98012.81;;;14.36
78917;BMP280;68315;48.608;11.436;2023-09-30T03:36:19;98012.63;;;14.34
78917;BMP280;68315;48.608;11.436;2023-09-30T03:38:45;98011.66;;;14.31
78917;BMP280;68315;48.608;11.436;2023-09-30T03:41:10;98025.47;;;14.31
78917;BMP280;68315;48.608;11.436;2023-09-30T03:43:41;98018.81;;;14.27
78917;BMP280;68315;48.608;11.436;2023-09-30T03:46:09;98016.72;;;14.20
78917;BMP280;68315;48.608;11.436;2023-09-30T03:48:34;98030.31;;;14.18
78917;BMP280;68315;48.608;11.436;2023-09-30T03:51:14;98019.59;;;14.14
78917;BMP280;68315;48.608;11.436;2023-09-30T03:53:41;98022.69;;;14.11
78917;BMP280;68315;48.608;11.436;2023-09-30T03:56:06;98023.00;;;14.07
78917;BMP280;68315;48.608;11.436;2023-09-30T03:58:32;98021.13;;;14.02
78917;BMP280;68315;48.608;11.436;2023-09-30T04:00:57;98027.16;;;14.01
78917;BMP280;68315;48.608;11.436;2023-09-30T04:03:23;98022.16;;;13.99
78917;BMP280;68315;48.608;11.436;2023-09-30T04:05:48;98026.75;;;13.97
78917;BMP280;68315;48.608;11.436;2023-09-30T04:08:15;98026.53;;;13.95
78917;BMP280;68315;48.608;11.436;2023-09-30T04:10:42;98026.34;;;13.93
78917;BMP280;68315;48.608;11.436;2023-09-30T04:13:08;98024.13;;;13.91
78917;BMP280;68315;48.608;11.436;2023-09-30T04:15:33;98032.91;;;13.90
78917;BMP280;68315;48.608;11.436;2023-09-30T04:18:00;98024.97;;;13.86
78917;BMP280;68315;48.608;11.436;2023-09-30T04:20:25;98026.25;;;13.85
78917;BMP280;68315;48.608;11.436;2023-09-30T04:22:52;98031.03;;;13.85
78917;BMP280;68315;48.608;11.436;2023-09-30T04:25:22;98030.50;;;13.86
78917;BMP280;68315;48.608;11.436;2023-09-30T04:27:49;98030.69;;;13.88
78917;BMP280;68315;48.608;11.436;2023-09-30T04:30:15;98022.63;;;13.90
78917;BMP280;68315;48.608;11.436;2023-09-30T04:32:40;98028.56;;;13.94
78917;BMP280;68315;48.608;11.436;2023-09-30T04:35:06;98033.75;;;13.98
78917;BMP280;68315;48.608;11.436;2023-09-30T04:37:33;98043.00;;;14.00
78917;BMP280;68315;48.608;11.436;2023-09-30T04:39:59;98034.19;;;14.02
78917;BMP280;68315;48.608;11.436;2023-09-30T04:42:24;98043.97;;;14.03
78917;BMP280;68315;48.608;11.436;2023-09-30T04:44:51;98045.44;;;14.04
78917;BMP280;68315;48.608;11.436;2023-09-30T04:47:16;98043.09;;;14.08
78917;BMP280;68315;48.608;11.436;2023-09-30T04:49:44;98052.97;;;14.16
78917;BMP280;68315;48.608;11.436;2023-09-30T04:52:09;98044.75;;;14.24
78917;BMP280;68315;48.608;11.436;2023-09-30T04:54:34;98045.38;;;14.30
78917;BMP280;68315;48.608;11.436;2023-09-30T04:57:00;98040.47;;;14.36
78917;BMP280;68315;48.608;11.436;2023-09-30T04:59:25;98041.09;;;14.42
78917;BMP280;68315;48.608;11.436;2023-09-30T05:01:51;98044.28;;;14.46
78917;BMP280;68315;48.608;11.436;2023-09-30T05:04:16;98047.44;;;14.50
78917;BMP280;68315;48.608;11.436;2023-09-30T05:06:42;98056.50;;;14.51
78917;BMP280;68315;48.608;11.436;2023-09-30T05:09:07;98041.91;;;14.50
78917;BMP280;68315;48.608;11.436;2023-09-30T05:11:32;98049.25;;;14.48
78917;BMP280;68315;48.608;11.436;2023-09-30T05:13:58;98053.31;;;14.47
78917;BMP280;68315;48.608;11.436;2023-09-30T05:16:24;98050.84;;;14.43
78917;BMP280;68315;48.608;11.436;2023-09-30T05:18:52;98061.00;;;14.40
78917;BMP280;68315;48.608;11.436;2023-09-30T05:21:17;98060.78;;;14.38
78917;BMP280;68315;48.608;11.436;2023-09-30T05:23:42;98069.28;;;14.40
78917;BMP280;68315;48.608;11.436;2023-09-30T05:26:07;98069.47;;;14.42
78917;BMP280;68315;48.608;11.436;2023-09-30T05:28:33;98061.06;;;14.48
78917;BMP280;68315;48.608;11.436;2023-09-30T05:30:59;98073.28;;;14.53
78917;BMP280;68315;48.608;11.436;2023-09-30T05:33:24;98073.94;;;14.59
78917;BMP280;68315;48.608;11.436;2023-09-30T05:35:50;98080.59;;;14.63
78917;BMP280;68315;48.608;11.436;2023-09-30T05:38:16;98081.75;;;14.68
78917;BMP280;68315;48.608;11.436;2023-09-30T05:40:42;98079.19;;;14.70
78917;BMP280;68315;48.608;11.436;2023-09-30T05:43:07;98080.34;;;14.74
78917;BMP280;68315;48.608;11.436;2023-09-30T05:45:33;98081.25;;;14.77
78917;BMP280;68315;48.608;11.436;2023-09-30T05:48:01;98073.72;;;14.77
78917;BMP280;68315;48.608;11.436;2023-09-30T05:50:29;98075.97;;;14.79
78917;BMP280;68315;48.608;11.436;2023-09-30T05:52:55;98074.66;;;14.80
78917;BMP280;68315;48.608;11.436;2023-09-30T05:55:21;98080.06;;;14.85
78917;BMP280;68315;48.608;11.436;2023-09-30T05:57:50;98085.25;;;14.89
78917;BMP280;68315;48.608;11.436;2023-09-30T06:00:17;98092.69;;;14.94
78917;BMP280;68315;48.608;11.436;2023-09-30T06:02:47;98088.84;;;14.97
78917;BMP280;68315;48.608;11.436;2023-09-30T06:05:13;98092.03;;;15.01
78917;BMP280;68315;48.608;11.436;2023-09-30T06:07:40;98101.47;;;15.05
78917;BMP280;68315;48.608;11.436;2023-09-30T06:10:06;98106.13;;;15.10
78917;BMP280;68315;48.608;11.436;2023-09-30T06:12:34;98110.38;;;15.11
78917;BMP280;68315;48.608;11.436;2023-09-30T06:15:01;98111.34;;;15.14
78917;BMP280;68315;48.608;11.436;2023-09-30T06:17:26;98116.34;;;15.15
78917;BMP280;68315;48.608;11.436;2023-09-30T06:19:51;98120.06;;;15.18
78917;BMP280;68315;48.608;11.436;2023-09-30T06:22:17;98123.94;;;15.22
78917;BMP280;68315;48.608;11.436;2023-09-30T06:24:42;98124.38;;;15.26
78917;BMP280;68315;48.608;11.436;2023-09-30T06:27:07;98128.47;;;15.33
78917;BMP280;68315;48.608;11.436;2023-09-30T06:29:35;98111.94;;;15.40
78917;BMP280;68315;48.608;11.436;2023-09-30T06:32:00;98126.38;;;15.47
78917;BMP280;68315;48.608;11.436;2023-09-30T06:34:25;98131.25;;;15.54
78917;BMP280;68315;48.608;11.436;2023-09-30T06:36:51;98132.56;;;15.60
78917;BMP280;68315;48.608;11.436;2023-09-30T06:39:18;98122.28;;;15.68
78917;BMP280;68315;48.608;11.436;2023-09-30T06:41:43;98135.44;;;15.75
78917;BMP280;68315;48.608;11.436;2023-09-30T06:44:08;98134.00;;;15.82
78917;BMP280;68315;48.608;11.436;2023-09-30T06:46:34;98129.59;;;15.86
78917;BMP280;68315;48.608;11.436;2023-09-30T06:48:59;98137.03;;;15.91
78917;BMP280;68315;48.608;11.436;2023-09-30T06:51:24;98138.31;;;15.98
78917;BMP280;68315;48.608;11.436;2023-09-30T06:53:51;98138.56;;;16.00
78917;BMP280;68315;48.608;11.436;2023-09-30T06:56:16;98132.31;;;16.07
78917;BMP280;68315;48.608;11.436;2023-09-30T06:58:42;98135.25;;;16.09
78917;BMP280;68315;48.608;11.436;2023-09-30T07:01:07;98129.53;;;16.14
78917;BMP280;68315;48.608;11.436;2023-09-30T07:03:32;98140.69;;;16.22
78917;BMP280;68315;48.608;11.436;2023-09-30T07:05:58;98153.66;;;16.27
78917;BMP280;68315;48.608;11.436;2023-09-30T07:08:27;98162.56;;;16.33
78917;BMP280;68315;48.608;11.436;2023-09-30T07:10:53;98166.63;;;16.39
78917;BMP280;68315;48.608;11.436;2023-09-30T07:13:19;98174.44;;;16.41
78917;BMP280;68315;48.608;11.436;2023-09-30T07:15:44;98178.72;;;16.42
78917;BMP280;68315;48.608;11.436;2023-09-30T07:18:09;98177.78;;;16.47
78917;BMP280;68315;48.608;11.436;2023-09-30T07:20:35;98177.47;;;16.58
78917;BMP280;68315;48.608;11.436;2023-09-30T07:23:00;98186.53;;;16.66
78917;BMP280;68315;48.608;11.436;2023-09-30T07:25:26;98187.66;;;16.71
78917;BMP280;68315;48.608;11.436;2023-09-30T07:27:52;98190.09;;;16.74
78917;BMP280;68315;48.608;11.436;2023-09-30T07:30:17;98188.44;;;16.79
78917;BMP280;68315;48.608;11.436;2023-09-30T07:32:43;98190.09;;;16.82
78917;BMP280;68315;48.608;11.436;2023-09-30T07:35:09;98199.72;;;16.81
78917;BMP280;68315;48.608;11.436;2023-09-30T07:37:34;98196.22;;;16.80
78917;BMP280;68315;48.608;11.436;2023-09-30T07:40:00;98193.84;;;16.84
78917;BMP280;68315;48.608;11.436;2023-09-30T07:42:25;98197.16;;;16.90
78917;BMP280;68315;48.608;11.436;2023-09-30T07:44:50;98199.22;;;16.97
78917;BMP280;68315;48.608;11.436;2023-09-30T07:47:16;98203.50;;;16.98
78917;BMP280;68315;48.608;11.436;2023-09-30T07:49:42;98210.69;;;17.01
78917;BMP280;68315;48.608;11.436;2023-09-30T07:52:07;98208.72;;;17.09
78917;BMP280;68315;48.608;11.436;2023-09-30T07:54:33;98203.16;;;17.17
78917;BMP280;68315;48.608;11.436;2023-09-30T07:56:59;98201.13;;;17.25
78917;BMP280;68315;48.608;11.436;2023-09-30T07:59:25;98202.25;;;17.37
78917;BMP280;68315;48.608;11.436;2023-09-30T08:01:50;98200.19;;;17.45
78917;BMP280;68315;48.608;11.436;2023-09-30T08:04:16;98197.78;;;17.49
78917;BMP280;68315;48.608;11.436;2023-09-30T08:06:42;98193.91;;;17.52
78917;BMP280;68315;48.608;11.436;2023-09-30T08:09:08;98193.53;;;17.56
78917;BMP280;68315;48.608;11.436;2023-09-30T08:11:36;98199.84;;;17.64
78917;BMP280;68315;48.608;11.436;2023-09-30T08:14:05;98203.56;;;17.74
78917;BMP280;68315;48.608;11.436;2023-09-30T08:16:35;98198.13;;;17.83
78917;BMP280;68315;48.608;11.436;2023-09-30T08:19:01;98201.13;;;17.85
78917;BMP280;68315;48.608;11.436;2023-09-30T08:21:28;98206.69;;;17.85
78917;BMP280;68315;48.608;11.436;2023-09-30T08:23:53;98224.84;;;17.79
78917;BMP280;68315;48.608;11.436;2023-09-30T08:26:19;98218.53;;;17.71
78917;BMP280;68315;48.608;11.436;2023-09-30T08:28:44;98229.09;;;17.72
78917;BMP280;68315;48.608;11.436;2023-09-30T08:31:09;98217.81;;;17.78
78917;BMP280;68315;48.608;11.436;2023-09-30T08:33:34;98218.72;;;17.80
78917;BMP280;68315;48.608;11.436;2023-09-30T08:36:05;98225.03;;;17.88
78917;BMP280;68315;48.608;11.436;2023-09-30T08:38:35;98236.50;;;18.00
78917;BMP280;68315;48.608;11.436;2023-09-30T08:41:01;98240.94;;;18.10
78917;BMP280;68315;48.608;11.436;2023-09-30T08:43:27;98224.78;;;18.16
78917;BMP280;68315;48.608;11.436;2023-09-30T08:45:56;98217.91;;;18.17
78917;BMP280;68315;48.608;11.436;2023-09-30T08:48:23;98221.94;;;18.31
78917;BMP280;68315;48.608;11.436;2023-09-30T08:50:49;98209.44;;;18.47
78917;BMP280;68315;48.608;11.436;2023-09-30T08:53:19;98213.84;;;18.66
78917;BMP280;68315;48.608;11.436;2023-09-30T08:55:46;98227.47;;;18.86
78917;BMP280;68315;48.608;11.436;2023-09-30T08:58:15;98226.97;;;19.05
78917;BMP280;68315;48.608;11.436;2023-09-30T09:00:42;98223.78;;;19.08
78917;BMP280;68315;48.608;11.436;2023-09-30T09:03:07;98218.75;;;19.14
78917;BMP280;68315;48.608;11.436;2023-09-30T09:05:33;98214.41;;;19.21
78917;BMP280;68315;48.608;11.436;2023-09-30T09:07:58;98230.47;;;19.37
78917;BMP280;68315;48.608;11.436;2023-09-30T09:10:24;98228.78;;;19.42
78917;BMP280;68315;48.608;11.436;2023-09-30T09:12:56;98221.16;;;19.42
78917;BMP280;68315;48.608;11.436;2023-09-30T09:15:26;98226.75;;;19.35
78917;BMP280;68315;48.608;11.436;2023-09-30T09:17:52;98236.16;;;19.22
78917;BMP280;68315;48.608;11.436;2023-09-30T09:20:19;98233.69;;;19.26
78917;BMP280;68315;48.608;11.436;2023-09-30T09:22:50;98223.06;;;19.32
78917;BMP280;68315;48.608;11.436;2023-09-30T09:25:18;98212.84;;;19.52
78917;BMP280;68315;48.608;11.436;2023-09-30T09:27:43;98215.13;;;19.70
78917;BMP280;68315;48.608;11.436;2023-09-30T09:30:15;98208.72;;;19.95
78917;BMP280;68315;48.608;11.436;2023-09-30T09:35:22;98209.06;;;20.16
78917;BMP280;68315;48.608;11.436;2023-09-30T09:38:04;98198.47;;;20.14
78917;BMP280;68315;48.608;11.436;2023-09-30T09:40:32;98212.16;;;20.20
78917;BMP280;68315;48.608;11.436;2023-09-30T09:42:58;98205.28;;;20.38
78917;BMP280;68315;48.608;11.436;2023-09-30T09:45:26;98197.16;;;20.59
78917;BMP280;68315;48.608;11.436;2023-09-30T09:47:52;98188.44;;;20.72
78917;BMP280;68315;48.608;11.436;2023-09-30T09:50:22;98196.28;;;20.83
78917;BMP280;68315;48.608;11.436;2023-09-30T09:52:48;98185.47;;;20.96
78917;BMP280;68315;48.608;11.436;2023-09-30T09:55:27;98180.41;;;20.95
78917;BMP280;68315;48.608;11.436;2023-09-30T09:57:55;98176.94;;;21.04
78917;BMP280;68315;48.608;11.436;2023-09-30T10:00:23;98179.50;;;21.19
78917;BMP280;68315;48.608;11.436;2023-09-30T10:02:50;98184.34;;;21.19
78917;BMP280;68315;48.608;11.436;2023-09-30T10:05:18;98187.31;;;21.30
78917;BMP280;68315;48.608;11.436;2023-09-30T10:08:06;98192.50;;;21.43
78917;BMP280;68315;48.608;11.436;2023-09-30T10:10:39;98185.59;;;21.54
78917;BMP280;68315;48.608;11.436;2023-09-30T10:13:05;98175.91;;;21.64
78917;BMP280;68315;48.608;11.436;2023-09-30T10:15:35;98175.16;;;21.73
78917;BMP280;68315;48.608;11.436;2023-09-30T10:18:05;98184.44;;;21.85
78917;BMP280;68315;48.608;11.436;2023-09-30T10:20:34;98175.03;;;22.00
78917;BMP280;68315;48.608;11.436;2023-09-30T10:23:19;98178.84;;;22.14
78917;BMP280;68315;48.608;11.436;2023-09-30T10:25:46;98173.69;;;22.10
78917;BMP280;68315;48.608;11.436;2023-09-30T10:28:37;98174.13;;;22.07
78917;BMP280;68315;48.608;11.436;2023-09-30T10:31:17;98169.81;;;22.15
78917;BMP280;68315;48.608;11.436;2023-09-30T10:36:34;98165.16;;;22.58
78917;BMP280;68315;48.608;11.436;2023-09-30T10:39:01;98174.44;;;22.70
78917;BMP280;68315;48.608;11.436;2023-09-30T10:46:59;98167.03;;;22.75
78917;BMP280;68315;48.608;11.436;2023-09-30T10:51:51;98162.06;;;22.64
78917;BMP280;68315;48.608;11.436;2023-09-30T10:54:22;98176.38;;;22.58
78917;BMP280;68315;48.608;11.436;2023-09-30T10:56:51;98186.03;;;22.45
78917;BMP280;68315;48.608;11.436;2023-09-30T10:59:21;98196.50;;;22.35
78917;BMP280;68315;48.608;11.436;2023-09-30T11:01:47;98194.91;;;22.23
78917;BMP280;68315;48.608;11.436;2023-09-30T11:04:13;98187.69;;;22.10
78917;BMP280;68315;48.608;11.436;2023-09-30T11:06:41;98189.91;;;22.02
78917;BMP280;68315;48.608;11.436;2023-09-30T11:09:07;98189.75;;;21.91
78917;BMP280;68315;48.608;11.436;2023-09-30T11:11:42;98189.03;;;21.81
78917;BMP280;68315;48.608;11.436;2023-09-30T11:14:19;98181.06;;;21.77
78917;BMP280;68315;48.608;11.436;2023-09-30T11:16:44;98181.94;;;21.70
78917;BMP280;68315;48.608;11.436;2023-09-30T11:19:11;98184.00;;;21.60
78917;BMP280;68315;48.608;11.436;2023-09-30T11:21:37;98181.78;;;21.59
78917;BMP280;68315;48.608;11.436;2023-09-30T11:24:03;98178.41;;;21.79
78917;BMP280;68315;48.608;11.436;2023-09-30T11:26:30;98185.63;;;22.20
78917;BMP280;68315;48.608;11.436;2023-09-30T11:29:12;98177.41;;;22.63
78917;BMP280;68315;48.608;11.436;2023-09-30T11:31:41;98185.31;;;23.06
78917;BMP280;68315;48.608;11.436;2023-09-30T11:34:08;98167.06;;;23.47
78917;BMP280;68315;48.608;11.436;2023-09-30T11:36:36;98159.94;;;23.88
78917;BMP280;68315;48.608;11.436;2023-09-30T11:39:01;98156.84;;;24.06
78917;BMP280;68315;48.608;11.436;2023-09-30T11:41:39;98147.97;;;23.88
78917;BMP280;68315;48.608;11.436;2023-09-30T11:44:09;98159.03;;;23.74
78917;BMP280;68315;48.608;11.436;2023-09-30T11:46:48;98157.50;;;23.62
78917;BMP280;68315;48.608;11.436;2023-09-30T11:49:25;98143.69;;;23.33
78917;BMP280;68315;48.608;11.436;2023-09-30T11:51:52;98136.34;;;23.07
78917;BMP280;68315;48.608;11.436;2023-09-30T11:54:18;98131.63;;;22.70
78917;BMP280;68315;48.608;11.436;2023-09-30T11:56:43;98127.19;;;22.36
78917;BMP280;68315;48.608;11.436;2023-09-30T11:59:08;98135.81;;;22.09
78917;BMP280;68315;48.608;11.436;2023-09-30T12:01:37;98131.41;;;21.87
78917;BMP280;68315;48.608;11.436;2023-09-30T12:04:03;98128.50;;;21.76
78917;BMP280;68315;48.608;11.436;2023-09-30T12:06:28;98135.84;;;21.62
78917;BMP280;68315;48.608;11.436;2023-09-30T12:08:53;98134.81;;;21.57
78917;BMP280;68315;48.608;11.436;2023-09-30T12:11:19;98136.72;;;21.55
78917;BMP280;68315;48.608;11.436;2023-09-30T12:13:44;98135.97;;;21.54
78917;BMP280;68315;48.608;11.436;2023-09-30T12:16:10;98124.50;;;21.60
78917;BMP280;68315;48.608;11.436;2023-09-30T12:18:38;98128.16;;;21.62
78917;BMP280;68315;48.608;11.436;2023-09-30T12:21:03;98119.97;;;21.64
78917;BMP280;68315;48.608;11.436;2023-09-30T12:23:31;98122.44;;;21.70
78917;BMP280;68315;48.608;11.436;2023-09-30T12:25:56;98128.16;;;22.00
78917;BMP280;68315;48.608;11.436;2023-09-30T12:28:21;98128.56;;;22.25
78917;BMP280;68315;48.608;11.436;2023-09-30T12:30:47;98124.09;;;22.41
78917;BMP280;68315;48.608;11.436;2023-09-30T12:33:12;98125.78;;;22.66
78917;BMP280;68315;48.608;11.436;2023-09-30T12:35:37;98113.41;;;22.90
78917;BMP280;68315;48.608;11.436;2023-09-30T12:38:03;98125.63;;;22.94
78917;BMP280;68315;48.608;11.436;2023-09-30T12:40:28;98135.09;;;22.89
78917;BMP280;68315;48.608;11.436;2023-09-30T12:42:54;98143.69;;;22.82
78917;BMP280;68315;48.608;11.436;2023-09-30T12:45:19;98143.91;;;22.74
78917;BMP280;68315;48.608;11.436;2023-09-30T12:47:45;98145.09;;;22.71
78917;BMP280;68315;48.608;11.436;2023-09-30T12:50:12;98148.47;;;22.70
78917;BMP280;68315;48.608;11.436;2023-09-30T12:52:37;98139.03;;;22.65
78917;BMP280;68315;48.608;11.436;2023-09-30T12:55:05;98144.69;;;22.56
78917;BMP280;68315;48.608;11.436;2023-09-30T12:57:31;98135.72;;;22.47
78917;BMP280;68315;48.608;11.436;2023-09-30T12:59:56;98149.09;;;22.59
78917;BMP280;68315;48.608;11.436;2023-09-30T13:02:22;98147.50;;;22.56
78917;BMP280;68315;48.608;11.436;2023-09-30T13:04:47;98126.56;;;22.57
78917;BMP280;68315;48.608;11.436;2023-09-30T13:07:12;98117.69;;;22.60
78917;BMP280;68315;48.608;11.436;2023-09-30T13:09:38;98105.75;;;22.60
78917;BMP280;68315;48.608;11.436;2023-09-30T13:12:04;98123.44;;;22.62
78917;BMP280;68315;48.608;11.436;2023-09-30T13:14:29;98111.63;;;22.64
78917;BMP280;68315;48.608;11.436;2023-09-30T13:16:54;98109.09;;;22.68
78917;BMP280;68315;48.608;11.436;2023-09-30T13:19:20;98113.81;;;22.65
78917;BMP280;68315;48.608;11.436;2023-09-30T13:21:51;98107.03;;;22.68
78917;BMP280;68315;48.608;11.436;2023-09-30T13:24:18;98103.16;;;22.73
78917;BMP280;68315;48.608;11.436;2023-09-30T13:26:44;98097.81;;;22.77
78917;BMP280;68315;48.608;11.436;2023-09-30T13:29:09;98100.25;;;22.92
78917;BMP280;68315;48.608;11.436;2023-09-30T13:31:36;98102.88;;;23.21
78917;BMP280;68315;48.608;11.436;2023-09-30T13:34:05;98100.00;;;23.51
78917;BMP280;68315;48.608;11.436;2023-09-30T13:36:30;98087.72;;;23.68
78917;BMP280;68315;48.608;11.436;2023-09-30T13:38:56;98090.47;;;23.77
78917;BMP280;68315;48.608;11.436;2023-09-30T13:41:21;98095.59;;;23.92
78917;BMP280;68315;48.608;11.436;2023-09-30T13:43:46;98093.78;;;23.97
78917;BMP280;68315;48.608;11.436;2023-09-30T13:46:12;98096.13;;;24.12
78917;BMP280;68315;48.608;11.436;2023-09-30T13:48:38;98094.47;;;24.30
78917;BMP280;68315;48.608;11.436;2023-09-30T13:51:07;98099.25;;;24.51
78917;BMP280;68315;48.608;11.436;2023-09-30T13:53:33;98102.28;;;24.66
78917;BMP280;68315;48.608;11.436;2023-09-30T13:55:58;98094.47;;;24.53
78917;BMP280;68315;48.608;11.436;2023-09-30T13:58:23;98091.53;;;24.51
78917;BMP280;68315;48.608;11.436;2023-09-30T14:00:50;98086.63;;;24.63
78917;BMP280;68315;48.608;11.436;2023-09-30T14:03:18;98082.72;;;24.68
78917;BMP280;68315;48.608;11.436;2023-09-30T14:05:44;98087.72;;;24.81
78917;BMP280;68315;48.608;11.436;2023-09-30T14:08:10;98078.06;;;24.84